Time,TemperatureF,DewpointF,PressureIn,WindDirection,WindDirectionDegrees,WindSpeedMPH,WindSpeedGustMPH,Humidity,HourlyPrecipIn,Conditions,Clouds,dailyrainin,SolarRadiationWatts/m^2,SoftwareType,DateUTC
2013-02-24 00:01:00,38.0,16.0,-100.00,South,181,3.0,9.0,41,0.00,,,0.00,0.000000,,2013-02-24 07:01:00,
2013-02-24 00:12:00,38.0,16.0,-100.00,South,181,3.0,9.0,41,0.00,,,0.00,0.000000,,2013-02-24 07:12:00,
2013-02-24 00:21:00,38.0,16.0,-100.00,South,181,3.0,9.0,41,0.00,,,0.00,0.000000,,2013-02-24 07:21:00,
2013-02-24 00:31:00,38.0,16.0,-100.00,South,181,3.0,9.0,41,0.00,,,0.00,0.000000,,2013-02-24 07:31:00,
2013-02-24 00:41:00,38.0,16.0,-100.00,South,181,3.0,9.0,41,0.00,,,0.00,0.000000,,2013-02-24 07:41:00,
2013-02-24 00:42:00,39.0,17.0,-100.00,South,188,3.0,9.0,40,0.00,,,0.00,0.000000,,2013-02-24 07:42:00,
2013-02-24 01:01:00,39.0,17.0,-100.00,South,188,3.0,9.0,40,0.00,,,0.00,0.000000,,2013-02-24 08:01:00,
2013-02-24 01:11:00,39.0,17.0,-100.00,South,188,3.0,9.0,40,0.00,,,0.00,0.000000,,2013-02-24 08:11:00,
2013-02-24 01:22:00,39.0,17.0,-100.00,South,188,3.0,9.0,40,0.00,,,0.00,0.000000,,2013-02-24 08:22:00,
2013-02-24 01:31:00,39.0,17.0,-100.00,South,188,3.0,9.0,40,0.00,,,0.00,0.000000,,2013-02-24 08:31:00,
2013-02-24 02:01:00,36.0,19.0,-100.00,NNE,31,2.0,9.0,50,0.00,,,0.00,0.000000,,2013-02-24 09:01:00,
2013-02-24 02:11:00,36.0,19.0,-100.00,NNE,31,2.0,9.0,50,0.00,,,0.00,0.000000,,2013-02-24 09:11:00,
2013-02-24 02:21:00,36.0,19.0,-100.00,NNE,31,2.0,9.0,50,0.00,,,0.00,0.000000,,2013-02-24 09:21:00,
2013-02-24 02:31:00,36.0,19.0,-100.00,NNE,31,2.0,9.0,50,0.00,,,0.00,0.000000,,2013-02-24 09:31:00,
2013-02-24 02:41:00,36.0,19.0,-100.00,NNE,31,2.0,9.0,50,0.00,,,0.00,0.000000,,2013-02-24 09:41:00,
2013-02-24 03:01:00,34.0,20.0,-100.00,SE,129,2.0,13.0,57,0.00,,,0.00,0.000000,,2013-02-24 10:01:00,
2013-02-24 03:11:00,34.0,20.0,-100.00,SE,129,2.0,13.0,57,0.00,,,0.00,0.000000,,2013-02-24 10:11:00,
2013-02-24 03:21:00,34.0,20.0,-100.00,SE,129,2.0,13.0,57,0.00,,,0.00,0.000000,,2013-02-24 10:21:00,
2013-02-24 03:32:00,34.0,20.0,-100.00,SE,129,2.0,13.0,57,0.00,,,0.00,0.000000,,2013-02-24 10:32:00,
2013-02-24 03:41:00,34.0,20.0,-100.00,SE,129,2.0,13.0,57,0.00,,,0.00,0.000000,,2013-02-24 10:41:00,
2013-02-24 04:01:00,32.0,20.0,-100.00,SE,126,3.0,9.0,60,0.00,,,0.00,0.000000,,2013-02-24 11:01:00,
2013-02-24 04:11:00,32.0,20.0,-100.00,SE,126,3.0,9.0,60,0.00,,,0.00,0.000000,,2013-02-24 11:11:00,
2013-02-24 04:21:00,32.0,20.0,-100.00,SE,126,3.0,9.0,60,0.00,,,0.00,0.000000,,2013-02-24 11:21:00,
2013-02-24 04:32:00,32.0,20.0,-100.00,SE,126,3.0,9.0,60,0.00,,,0.00,0.000000,,2013-02-24 11:32:00,
2013-02-24 04:41:00,32.0,20.0,-100.00,SE,126,3.0,9.0,60,0.00,,,0.00,0.000000,,2013-02-24 11:41:00,
2013-02-24 04:42:00,31.0,18.0,-100.00,NE,37,3.0,8.0,59,0.00,,,0.00,0.000000,,2013-02-24 11:42:00,
2013-02-24 05:01:00,31.0,18.0,-100.00,NE,37,3.0,8.0,59,0.00,,,0.00,0.000000,,2013-02-24 12:01:00,
2013-02-24 05:11:00,31.0,18.0,-100.00,NE,37,3.0,8.0,59,0.00,,,0.00,0.000000,,2013-02-24 12:11:00,
2013-02-24 05:22:00,31.0,18.0,-100.00,NE,37,3.0,8.0,59,0.00,,,0.00,0.000000,,2013-02-24 12:22:00,
2013-02-24 05:32:00,31.0,18.0,-100.00,NE,37,3.0,8.0,59,0.00,,,0.00,0.000000,,2013-02-24 12:32:00,
2013-02-24 05:42:00,31.0,18.0,-100.00,NNE,20,3.0,9.0,57,0.00,,,0.00,0.000000,,2013-02-24 12:42:00,
2013-02-24 06:13:00,31.0,18.0,-100.00,NNE,20,3.0,9.0,57,0.00,,,0.00,0.000000,,2013-02-24 13:13:00,
2013-02-24 06:34:00,31.0,18.0,-100.00,NNE,20,3.0,9.0,57,0.00,,,0.00,0.000000,,2013-02-24 13:34:00,
2013-02-24 06:42:00,31.0,18.0,-100.00,NW,322,4.0,7.0,57,0.00,,,0.00,0.000000,,2013-02-24 13:42:00,
2013-02-24 07:04:00,31.0,18.0,-100.00,NW,322,4.0,7.0,57,0.00,,,0.00,0.000000,,2013-02-24 14:04:00,
2013-02-24 07:14:00,31.0,18.0,-100.00,NW,322,4.0,7.0,57,0.00,,,0.00,0.000000,,2013-02-24 14:14:00,
2013-02-24 07:24:00,31.0,18.0,-100.00,NW,322,4.0,7.0,57,0.00,,,0.00,0.000000,,2013-02-24 14:24:00,
2013-02-24 07:34:00,31.0,18.0,-100.00,NW,322,4.0,7.0,57,0.00,,,0.00,0.000000,,2013-02-24 14:34:00,
2013-02-24 07:42:00,32.0,18.0,-100.00,NNE,12,2.0,6.0,56,0.00,,,-99.99,27.000000,,2013-02-24 14:42:00,
2013-02-24 08:03:00,32.0,18.0,-100.00,NNE,12,2.0,6.0,56,0.00,,,-99.99,27.000000,,2013-02-24 15:03:00,
2013-02-24 08:13:00,32.0,18.0,-100.00,NNE,12,2.0,6.0,56,0.00,,,-99.99,27.000000,,2013-02-24 15:13:00,
2013-02-24 08:23:00,32.0,18.0,-100.00,NNE,12,2.0,6.0,56,0.00,,,-99.99,27.000000,,2013-02-24 15:23:00,
2013-02-24 08:32:00,32.0,18.0,-100.00,NNE,12,2.0,6.0,56,0.00,,,-99.99,27.000000,,2013-02-24 15:32:00,
2013-02-24 09:01:00,32.0,17.0,-100.00,NW,315,5.0,11.0,54,0.00,,,-99.99,102.000000,,2013-02-24 16:01:00,
2013-02-24 09:11:00,32.0,17.0,-100.00,NW,315,5.0,11.0,54,0.00,,,-99.99,102.000000,,2013-02-24 16:11:00,
2013-02-24 09:21:00,32.0,17.0,-100.00,NW,315,5.0,11.0,54,0.00,,,-99.99,102.000000,,2013-02-24 16:21:00,
2013-02-24 09:32:00,32.0,17.0,-100.00,NW,315,5.0,11.0,54,0.00,,,-99.99,102.000000,,2013-02-24 16:32:00,
2013-02-24 09:41:00,32.0,17.0,-100.00,NW,315,5.0,11.0,54,0.00,,,-99.99,102.000000,,2013-02-24 16:41:00,
2013-02-24 09:42:00,36.0,16.0,-100.00,WNW,299,5.0,11.0,43,0.00,,,0.00,271.000000,,2013-02-24 16:42:00,
2013-02-24 10:01:00,36.0,16.0,-100.00,WNW,299,5.0,11.0,43,0.00,,,0.00,271.000000,,2013-02-24 17:01:00,
2013-02-24 10:11:00,36.0,16.0,-100.00,WNW,299,5.0,11.0,43,0.00,,,0.00,271.000000,,2013-02-24 17:11:00,
2013-02-24 10:21:00,36.0,16.0,-100.00,WNW,299,5.0,11.0,43,0.00,,,0.00,271.000000,,2013-02-24 17:21:00,
2013-02-24 10:32:00,36.0,16.0,-100.00,WNW,299,5.0,11.0,43,0.00,,,0.00,271.000000,,2013-02-24 17:32:00,
2013-02-24 10:42:00,38.0,14.0,-100.00,WNW,298,7.0,13.0,37,0.00,,,0.00,419.000000,,2013-02-24 17:42:00,
2013-02-24 11:02:00,38.0,14.0,-100.00,WNW,298,7.0,13.0,37,0.00,,,0.00,419.000000,,2013-02-24 18:02:00,
2013-02-24 11:11:00,38.0,14.0,-100.00,WNW,298,7.0,13.0,37,0.00,,,0.00,419.000000,,2013-02-24 18:11:00,
2013-02-24 11:22:00,38.0,14.0,-100.00,WNW,298,7.0,13.0,37,0.00,,,0.00,419.000000,,2013-02-24 18:22:00,
2013-02-24 11:32:00,38.0,14.0,-100.00,WNW,298,7.0,13.0,37,0.00,,,0.00,419.000000,,2013-02-24 18:32:00,
2013-02-24 11:42:00,41.0,15.0,-100.00,NNE,32,4.0,14.0,34,0.00,,,0.00,445.000000,,2013-02-24 18:42:00,
2013-02-24 12:01:00,41.0,15.0,-100.00,NNE,32,4.0,14.0,34,0.00,,,0.00,445.000000,,2013-02-24 19:01:00,
2013-02-24 12:11:00,41.0,15.0,-100.00,NNE,32,4.0,14.0,34,0.00,,,0.00,445.000000,,2013-02-24 19:11:00,
2013-02-24 12:22:00,41.0,15.0,-100.00,NNE,32,4.0,14.0,34,0.00,,,0.00,445.000000,,2013-02-24 19:22:00,
2013-02-24 12:32:00,41.0,15.0,-100.00,NNE,32,4.0,14.0,34,0.00,,,0.00,445.000000,,2013-02-24 19:32:00,
2013-02-24 13:02:00,45.0,11.0,-100.00,WNW,297,5.0,11.0,25,0.00,,,-99.99,700.000000,,2013-02-24 20:02:00,
2013-02-24 13:11:00,45.0,11.0,-100.00,WNW,297,5.0,11.0,25,0.00,,,-99.99,700.000000,,2013-02-24 20:11:00,
2013-02-24 13:21:00,45.0,11.0,-100.00,WNW,297,5.0,11.0,25,0.00,,,-99.99,700.000000,,2013-02-24 20:21:00,
2013-02-24 13:32:00,45.0,11.0,-100.00,WNW,297,5.0,11.0,25,0.00,,,-99.99,700.000000,,2013-02-24 20:32:00,
2013-02-24 13:41:00,45.0,11.0,-100.00,WNW,297,5.0,11.0,25,0.00,,,-99.99,700.000000,,2013-02-24 20:41:00,
2013-02-24 14:02:00,44.0,8.0,-100.00,WNW,300,8.0,15.0,22,0.00,,,0.00,756.000000,,2013-02-24 21:02:00,
2013-02-24 14:11:00,44.0,8.0,-100.00,WNW,300,8.0,15.0,22,0.00,,,0.00,756.000000,,2013-02-24 21:11:00,
2013-02-24 14:21:00,44.0,8.0,-100.00,WNW,300,8.0,15.0,22,0.00,,,0.00,756.000000,,2013-02-24 21:21:00,
2013-02-24 14:32:00,44.0,8.0,-100.00,WNW,300,8.0,15.0,22,0.00,,,0.00,756.000000,,2013-02-24 21:32:00,
2013-02-24 14:41:00,44.0,8.0,-100.00,WNW,300,8.0,15.0,22,0.00,,,0.00,756.000000,,2013-02-24 21:41:00,
2013-02-24 15:01:00,42.0,8.0,-100.00,WNW,285,13.0,22.0,24,0.00,,,0.00,571.000000,,2013-02-24 22:01:00,
2013-02-24 15:11:00,42.0,8.0,-100.00,WNW,285,13.0,22.0,24,0.00,,,0.00,571.000000,,2013-02-24 22:11:00,
2013-02-24 15:21:00,42.0,8.0,-100.00,WNW,285,13.0,22.0,24,0.00,,,0.00,571.000000,,2013-02-24 22:21:00,
2013-02-24 15:31:00,42.0,8.0,-100.00,WNW,285,13.0,22.0,24,0.00,,,0.00,571.000000,,2013-02-24 22:31:00,
2013-02-24 15:41:00,42.0,8.0,-100.00,WNW,285,13.0,22.0,24,0.00,,,0.00,571.000000,,2013-02-24 22:41:00,
2013-02-24 15:42:00,39.0,4.0,-100.00,WNW,300,12.0,21.0,23,0.00,,,0.00,447.000000,,2013-02-24 22:42:00,
2013-02-24 16:02:00,39.0,4.0,-100.00,WNW,300,12.0,21.0,23,0.00,,,0.00,447.000000,,2013-02-24 23:02:00,
2013-02-24 16:11:00,39.0,4.0,-100.00,WNW,300,12.0,21.0,23,0.00,,,0.00,447.000000,,2013-02-24 23:11:00,
2013-02-24 16:21:00,39.0,4.0,-100.00,WNW,300,12.0,21.0,23,0.00,,,0.00,447.000000,,2013-02-24 23:21:00,
2013-02-24 16:32:00,39.0,4.0,-100.00,WNW,300,12.0,21.0,23,0.00,,,0.00,447.000000,,2013-02-24 23:32:00,
2013-02-24 16:42:00,38.0,6.0,-100.00,WNW,294,12.0,21.0,26,0.00,,,0.00,130.000000,,2013-02-24 23:42:00,
2013-02-24 17:01:00,38.0,6.0,-100.00,WNW,294,12.0,21.0,26,0.00,,,0.00,130.000000,,2013-02-25 00:01:00,
2013-02-24 17:11:00,38.0,6.0,-100.00,WNW,294,12.0,21.0,26,0.00,,,0.00,130.000000,,2013-02-25 00:11:00,
2013-02-24 17:21:00,38.0,6.0,-100.00,WNW,294,12.0,21.0,26,0.00,,,0.00,130.000000,,2013-02-25 00:21:00,
2013-02-24 17:32:00,38.0,6.0,-100.00,WNW,294,12.0,21.0,26,0.00,,,0.00,130.000000,,2013-02-25 00:32:00,
2013-02-24 17:42:00,36.0,3.0,-100.00,WNW,295,13.0,22.0,24,0.00,,,0.00,45.000000,,2013-02-25 00:42:00,
2013-02-24 18:01:00,36.0,3.0,-100.00,WNW,295,13.0,22.0,24,0.00,,,0.00,45.000000,,2013-02-25 01:01:00,
2013-02-24 18:11:00,36.0,3.0,-100.00,WNW,295,13.0,22.0,24,0.00,,,0.00,45.000000,,2013-02-25 01:11:00,
2013-02-24 18:21:00,36.0,3.0,-100.00,WNW,295,13.0,22.0,24,0.00,,,0.00,45.000000,,2013-02-25 01:21:00,
2013-02-24 18:31:00,36.0,3.0,-100.00,WNW,295,13.0,22.0,24,0.00,,,0.00,45.000000,,2013-02-25 01:31:00,
2013-02-24 19:01:00,36.0,3.0,-100.00,NW,310,9.0,21.0,24,0.00,,,0.00,1.000000,,2013-02-25 02:01:00,
2013-02-24 19:11:00,36.0,3.0,-100.00,NW,310,9.0,21.0,24,0.00,,,0.00,1.000000,,2013-02-25 02:11:00,
2013-02-24 19:21:00,36.0,3.0,-100.00,NW,310,9.0,21.0,24,0.00,,,0.00,1.000000,,2013-02-25 02:21:00,
2013-02-24 19:31:00,36.0,3.0,-100.00,NW,310,9.0,21.0,24,0.00,,,0.00,1.000000,,2013-02-25 02:31:00,
2013-02-24 19:41:00,36.0,3.0,-100.00,NW,310,9.0,21.0,24,0.00,,,0.00,1.000000,,2013-02-25 02:41:00,
2013-02-24 19:42:00,32.0,13.0,-100.00,NNW,340,5.0,15.0,44,0.00,,,0.00,0.000000,,2013-02-25 02:42:00,
2013-02-24 20:01:00,32.0,13.0,-100.00,NNW,340,5.0,15.0,44,0.00,,,0.00,0.000000,,2013-02-25 03:01:00,
2013-02-24 20:11:00,32.0,13.0,-100.00,NNW,340,5.0,15.0,44,0.00,,,0.00,0.000000,,2013-02-25 03:11:00,
2013-02-24 20:21:00,32.0,13.0,-100.00,NNW,340,5.0,15.0,44,0.00,,,0.00,0.000000,,2013-02-25 03:21:00,
2013-02-24 20:31:00,32.0,13.0,-100.00,NNW,340,5.0,15.0,44,0.00,,,0.00,0.000000,,2013-02-25 03:31:00,
2013-02-24 21:01:00,32.0,14.0,-100.00,NW,311,7.0,16.0,47,0.00,,,0.00,0.000000,,2013-02-25 04:01:00,
2013-02-24 21:11:00,32.0,14.0,-100.00,NW,311,7.0,16.0,47,0.00,,,0.00,0.000000,,2013-02-25 04:11:00,
2013-02-24 21:21:00,32.0,14.0,-100.00,NW,311,7.0,16.0,47,0.00,,,0.00,0.000000,,2013-02-25 04:21:00,
2013-02-24 21:32:00,32.0,14.0,-100.00,NW,311,7.0,16.0,47,0.00,,,0.00,0.000000,,2013-02-25 04:32:00,
2013-02-24 21:41:00,32.0,14.0,-100.00,NW,311,7.0,16.0,47,0.00,,,0.00,0.000000,,2013-02-25 04:41:00,
2013-02-24 21:42:00,30.0,19.0,-100.00,NNE,25,5.0,12.0,62,0.00,,,0.00,0.000000,,2013-02-25 04:42:00,
2013-02-24 22:01:00,30.0,19.0,-100.00,NNE,25,5.0,12.0,62,0.00,,,0.00,0.000000,,2013-02-25 05:01:00,
2013-02-24 22:11:00,30.0,19.0,-100.00,NNE,25,5.0,12.0,62,0.00,,,0.00,0.000000,,2013-02-25 05:11:00,
2013-02-24 22:22:00,30.0,19.0,-100.00,NNE,25,5.0,12.0,62,0.00,,,0.00,0.000000,,2013-02-25 05:22:00,
2013-02-24 22:32:00,30.0,19.0,-100.00,NNE,25,5.0,12.0,62,0.00,,,0.00,0.000000,,2013-02-25 05:32:00,
2013-02-24 22:42:00,28.0,26.0,-100.00,NNE,20,2.0,7.0,91,0.00,,,-99.99,0.000000,,2013-02-25 05:42:00,
2013-02-24 23:02:00,28.0,26.0,-100.00,NNE,20,2.0,7.0,91,0.00,,,-99.99,0.000000,,2013-02-25 06:02:00,
2013-02-24 23:11:00,28.0,26.0,-100.00,NNE,20,2.0,7.0,91,0.00,,,-99.99,0.000000,,2013-02-25 06:11:00,
2013-02-24 23:21:00,28.0,26.0,-100.00,NNE,20,2.0,7.0,91,0.00,,,-99.99,0.000000,,2013-02-25 06:21:00,
2013-02-24 23:32:00,28.0,26.0,-100.00,NNE,20,2.0,7.0,91,0.00,,,-99.99,0.000000,,2013-02-25 06:32:00,